createdAt,value
2022-11-13T00:00:49.825Z,1020.35
2022-11-13T00:01:49.824Z,1020.35
2022-11-13T00:02:49.834Z,1020.31
2022-11-13T00:03:49.820Z,1020.32
2022-11-13T00:04:49.779Z,1020.35
2022-11-13T00:05:49.743Z,1020.33
2022-11-13T00:06:52.665Z,1020.32
2022-11-13T00:07:49.734Z,1020.34
2022-11-13T00:08:49.731Z,1020.31
2022-11-13T00:09:49.711Z,1020.30
2022-11-13T00:10:49.707Z,1020.28
2022-11-13T00:11:49.672Z,1020.29
2022-11-13T00:12:49.784Z,1020.27
2022-11-13T00:13:49.666Z,1020.28
2022-11-13T00:14:49.633Z,1020.31
2022-11-13T00:15:49.633Z,1020.29
2022-11-13T00:16:49.735Z,1020.28
2022-11-13T00:17:49.607Z,1020.29
2022-11-13T00:18:49.589Z,1020.27
2022-11-13T00:19:49.610Z,1020.22
2022-11-13T00:20:49.550Z,1020.20
2022-11-13T00:21:49.525Z,1020.17
2022-11-13T00:22:49.524Z,1020.16
2022-11-13T00:23:49.582Z,1020.17
2022-11-13T00:24:49.487Z,1020.14
2022-11-13T00:25:49.493Z,1020.12
2022-11-13T00:26:49.470Z,1020.11
2022-11-13T00:27:49.463Z,1020.11
2022-11-13T00:28:49.521Z,1020.09
2022-11-13T00:29:49.423Z,1020.08
2022-11-13T00:30:49.413Z,1020.04
2022-11-13T00:31:49.396Z,1020.04
2022-11-13T00:32:49.415Z,1020.04
2022-11-13T00:34:49.402Z,1019.99
2022-11-13T00:35:49.340Z,1020.00
2022-11-13T00:36:49.347Z,1019.98
2022-11-13T00:37:49.347Z,1019.99
2022-11-13T00:38:49.345Z,1019.96
2022-11-13T00:39:49.320Z,1020.00
2022-11-13T00:40:49.293Z,1019.96
2022-11-13T00:41:49.285Z,1019.95
2022-11-13T00:42:49.277Z,1019.97
2022-11-13T00:43:49.281Z,1019.94
2022-11-13T00:44:49.248Z,1019.95
2022-11-13T00:45:49.269Z,1019.98
2022-11-13T00:46:49.206Z,1020.00
2022-11-13T00:47:49.205Z,1020.01
2022-11-13T00:48:49.173Z,1019.97
2022-11-13T00:49:49.242Z,1020.01
2022-11-13T00:50:49.148Z,1019.98
2022-11-13T00:51:49.131Z,1019.95
2022-11-13T00:52:49.136Z,1019.97
2022-11-13T00:53:49.164Z,1019.98
2022-11-13T00:54:49.127Z,1019.95
2022-11-13T00:55:49.084Z,1019.92
2022-11-13T00:56:49.088Z,1019.95
2022-11-13T00:57:49.106Z,1019.98
2022-11-13T00:58:49.064Z,1019.93
2022-11-13T00:59:49.118Z,1019.93
2022-11-13T01:00:49.007Z,1019.95
2022-11-13T01:01:49.099Z,1019.97
2022-11-13T01:02:49.051Z,1019.96
2022-11-13T01:03:48.987Z,1019.96
2022-11-13T01:04:48.974Z,1019.96
2022-11-13T01:05:48.947Z,1019.98
2022-11-13T01:06:49.030Z,1020.00
2022-11-13T01:07:48.938Z,1020.00
2022-11-13T01:08:48.953Z,1019.93
2022-11-13T01:09:48.922Z,1019.97
2022-11-13T01:10:53.457Z,1020.00
2022-11-13T01:11:48.871Z,1019.98
2022-11-13T01:12:48.874Z,1019.99
2022-11-13T01:13:48.841Z,1020.06
2022-11-13T01:14:48.852Z,1019.95
2022-11-13T01:15:48.823Z,1019.96
2022-11-13T01:16:48.882Z,1019.93
2022-11-13T01:17:48.773Z,1019.93
2022-11-13T01:18:48.793Z,1019.95
2022-11-13T01:19:48.813Z,1019.95
2022-11-13T01:20:48.761Z,1019.94
2022-11-13T01:21:48.774Z,1019.98
2022-11-13T01:22:48.737Z,1019.96
2022-11-13T01:23:48.733Z,1019.94
2022-11-13T01:24:48.719Z,1019.92
2022-11-13T01:25:48.685Z,1019.92
2022-11-13T01:26:48.686Z,1019.90
2022-11-13T01:27:48.667Z,1019.93
2022-11-13T01:28:48.641Z,1019.94
2022-11-13T01:29:48.676Z,1019.91
2022-11-13T01:30:48.639Z,1019.89
2022-11-13T01:31:48.599Z,1019.88
2022-11-13T01:32:48.717Z,1019.92
2022-11-13T01:33:48.581Z,1019.91
2022-11-13T01:34:48.697Z,1019.92
2022-11-13T01:35:48.563Z,1019.91
2022-11-13T01:36:48.534Z,1019.89
2022-11-13T01:37:48.535Z,1019.84
2022-11-13T01:38:48.536Z,1019.87
2022-11-13T01:39:48.571Z,1019.80
2022-11-13T01:40:48.561Z,1019.84
2022-11-13T01:41:48.552Z,1019.88
2022-11-13T01:42:48.484Z,1019.86
2022-11-13T01:43:48.471Z,1019.85
2022-11-13T01:44:48.437Z,1019.90
2022-11-13T01:45:48.501Z,1019.81
2022-11-13T01:46:48.410Z,1019.85
2022-11-13T01:47:48.464Z,1019.82
2022-11-13T01:48:48.387Z,1019.80
2022-11-13T01:49:48.509Z,1019.79
2022-11-13T01:50:48.456Z,1019.76
2022-11-13T01:51:48.386Z,1019.76
2022-11-13T01:52:48.338Z,1019.79
2022-11-13T01:53:48.332Z,1019.73
2022-11-13T01:54:48.300Z,1019.74
2022-11-13T01:55:48.301Z,1019.70
2022-11-13T01:56:48.275Z,1019.71
2022-11-13T01:57:48.279Z,1019.64
2022-11-13T01:58:48.245Z,1019.60
2022-11-13T01:59:48.241Z,1019.63
2022-11-13T02:00:48.285Z,1019.59
2022-11-13T02:01:48.265Z,1019.64
2022-11-13T02:02:48.296Z,1019.64
2022-11-13T02:03:48.169Z,1019.58
2022-11-13T02:04:48.211Z,1019.63
2022-11-13T02:05:48.181Z,1019.60
2022-11-13T02:06:48.202Z,1019.61
2022-11-13T02:07:48.162Z,1019.62
2022-11-13T02:08:48.134Z,1019.58
2022-11-13T02:09:48.107Z,1019.56
2022-11-13T02:10:48.096Z,1019.58
2022-11-13T02:11:48.108Z,1019.59
2022-11-13T02:12:48.134Z,1019.55
2022-11-13T02:13:48.072Z,1019.56
2022-11-13T02:14:48.044Z,1019.53
2022-11-13T02:15:48.036Z,1019.50
2022-11-13T02:16:48.008Z,1019.51
2022-11-13T02:17:47.993Z,1019.50
2022-11-13T02:18:47.980Z,1019.54
2022-11-13T02:19:48.013Z,1019.50
2022-11-13T02:20:47.948Z,1019.49
2022-11-13T02:21:47.964Z,1019.45
2022-11-13T02:22:47.927Z,1019.45
2022-11-13T02:23:47.938Z,1019.43
2022-11-13T02:24:52.244Z,1019.42
2022-11-13T02:25:47.894Z,1019.40
2022-11-13T02:26:47.868Z,1019.42
2022-11-13T02:27:47.871Z,1019.40
2022-11-13T02:28:47.912Z,1019.34
2022-11-13T02:29:47.838Z,1019.33
2022-11-13T02:30:47.904Z,1019.30
2022-11-13T02:31:47.817Z,1019.31
2022-11-13T02:32:47.781Z,1019.32
2022-11-13T02:33:47.807Z,1019.34
2022-11-13T02:34:47.784Z,1019.32
2022-11-13T02:35:47.801Z,1019.38
2022-11-13T02:36:47.740Z,1019.36
2022-11-13T02:37:47.725Z,1019.34
2022-11-13T02:38:47.740Z,1019.32
2022-11-13T02:39:47.705Z,1019.35
2022-11-13T02:40:47.712Z,1019.33
2022-11-13T02:41:47.684Z,1019.35
2022-11-13T02:42:47.684Z,1019.37
2022-11-13T02:43:47.670Z,1019.32
2022-11-13T02:44:47.669Z,1019.29
2022-11-13T02:45:47.624Z,1019.31
2022-11-13T02:46:47.656Z,1019.31
2022-11-13T02:47:47.602Z,1019.29
2022-11-13T02:48:47.567Z,1019.31
2022-11-13T02:49:47.591Z,1019.29
2022-11-13T02:50:47.539Z,1019.26
2022-11-13T02:51:47.567Z,1019.26
2022-11-13T02:52:47.592Z,1019.25
2022-11-13T02:53:47.539Z,1019.26
2022-11-13T02:54:47.515Z,1019.25
2022-11-13T02:55:47.547Z,1019.25
2022-11-13T02:56:47.489Z,1019.22
2022-11-13T02:57:47.516Z,1019.21
2022-11-13T02:58:47.445Z,1019.19
2022-11-13T02:59:47.435Z,1019.17
2022-11-13T03:00:47.450Z,1019.21
2022-11-13T03:01:47.569Z,1019.19
2022-11-13T03:02:47.448Z,1019.25
2022-11-13T03:03:57.567Z,1019.25
2022-11-13T03:05:47.383Z,1019.17
2022-11-13T03:06:47.476Z,1019.20
2022-11-13T03:07:47.340Z,1019.13
2022-11-13T03:08:47.356Z,1019.12
2022-11-13T03:09:47.318Z,1019.09
2022-11-13T03:10:47.325Z,1019.07
2022-11-13T03:11:47.289Z,1019.09
2022-11-13T03:12:47.307Z,1019.07
2022-11-13T03:13:47.247Z,1019.08
2022-11-13T03:14:47.232Z,1019.13
2022-11-13T03:15:47.248Z,1019.11
2022-11-13T03:16:47.220Z,1019.06
2022-11-13T03:17:47.229Z,1019.14
2022-11-13T03:18:47.181Z,1019.06
2022-11-13T03:19:47.190Z,1019.03
2022-11-13T03:20:47.182Z,1019.05
2022-11-13T03:21:47.146Z,1019.03
2022-11-13T03:22:47.130Z,1019.11
2022-11-13T03:23:47.144Z,1019.00
2022-11-13T03:24:47.125Z,1019.05
2022-11-13T03:25:47.127Z,1019.08
2022-11-13T03:26:47.073Z,1019.03
2022-11-13T03:27:47.074Z,1019.08
2022-11-13T03:28:47.053Z,1019.06
2022-11-13T03:29:47.092Z,1019.05
2022-11-13T03:30:47.032Z,1019.06
2022-11-13T03:31:47.032Z,1019.08
2022-11-13T03:32:47.021Z,1019.06
2022-11-13T03:33:47.046Z,1018.99
2022-11-13T03:34:46.980Z,1019.02
2022-11-13T03:35:47.304Z,1019.02
2022-11-13T03:36:46.959Z,1019.02
2022-11-13T03:37:46.930Z,1018.99
2022-11-13T03:38:46.952Z,1018.93
2022-11-13T03:39:46.909Z,1018.95
2022-11-13T03:40:46.881Z,1018.93
2022-11-13T03:41:46.902Z,1018.88
2022-11-13T03:42:46.863Z,1018.89
2022-11-13T03:43:46.926Z,1018.92
2022-11-13T03:44:46.833Z,1018.93
2022-11-13T03:45:46.881Z,1018.92
2022-11-13T03:46:46.825Z,1018.94
2022-11-13T03:47:46.865Z,1018.89
2022-11-13T03:48:46.775Z,1018.92
2022-11-13T03:49:46.812Z,1018.94
2022-11-13T03:50:46.749Z,1018.91
2022-11-13T03:51:46.756Z,1018.94
2022-11-13T03:52:46.735Z,1018.94
2022-11-13T03:53:46.767Z,1018.95
2022-11-13T03:54:46.819Z,1018.88
2022-11-13T03:55:46.703Z,1018.88
2022-11-13T03:56:46.707Z,1018.90
2022-11-13T03:57:46.668Z,1018.88
2022-11-13T03:58:49.534Z,1018.86
2022-11-13T03:59:46.641Z,1018.87
2022-11-13T04:00:46.619Z,1018.94
2022-11-13T04:01:46.695Z,1018.87
2022-11-13T04:02:46.608Z,1018.86
2022-11-13T04:03:46.622Z,1018.85
2022-11-13T04:04:46.576Z,1018.89
2022-11-13T04:05:46.591Z,1018.87
2022-11-13T04:06:46.602Z,1018.85
2022-11-13T04:07:46.575Z,1018.86
2022-11-13T04:08:46.537Z,1018.87
2022-11-13T04:09:46.554Z,1018.86
2022-11-13T04:10:46.485Z,1018.85
2022-11-13T04:11:46.489Z,1018.87
2022-11-13T04:12:46.444Z,1018.82
2022-11-13T04:13:46.467Z,1018.84
2022-11-13T04:14:46.471Z,1018.79
2022-11-13T04:15:46.411Z,1018.78
2022-11-13T04:16:46.416Z,1018.75
2022-11-13T04:17:46.413Z,1018.75
2022-11-13T04:18:46.416Z,1018.70
2022-11-13T04:19:46.373Z,1018.71
2022-11-13T04:20:46.356Z,1018.67
2022-11-13T04:21:46.436Z,1018.67
2022-11-13T04:22:46.324Z,1018.63
2022-11-13T04:23:46.457Z,1018.64
2022-11-13T04:24:46.311Z,1018.61
2022-11-13T04:25:46.338Z,1018.60
2022-11-13T04:26:46.301Z,1018.61
2022-11-13T04:27:46.260Z,1018.57
2022-11-13T04:28:46.306Z,1018.53
2022-11-13T04:29:46.244Z,1018.53
2022-11-13T04:30:46.215Z,1018.53
2022-11-13T04:31:46.239Z,1018.55
2022-11-13T04:32:46.179Z,1018.54
2022-11-13T04:33:46.192Z,1018.56
2022-11-13T04:34:46.183Z,1018.55
2022-11-13T04:35:46.167Z,1018.52
2022-11-13T04:36:46.158Z,1018.52
2022-11-13T04:37:46.174Z,1018.54
2022-11-13T04:38:46.098Z,1018.58
2022-11-13T04:39:46.091Z,1018.55
2022-11-13T04:40:46.224Z,1018.50
2022-11-13T04:41:48.958Z,1018.49
2022-11-13T04:42:46.077Z,1018.49
2022-11-13T04:43:46.094Z,1018.53
2022-11-13T04:44:46.037Z,1018.52
2022-11-13T04:45:46.034Z,1018.50
2022-11-13T04:46:45.046Z,1018.52
2022-11-13T04:47:46.014Z,1018.46
2022-11-13T04:48:46.070Z,1018.47
2022-11-13T04:49:45.999Z,1018.52
2022-11-13T04:50:45.987Z,1018.53
2022-11-13T04:51:45.943Z,1018.53
2022-11-13T04:52:45.964Z,1018.49
2022-11-13T04:53:45.967Z,1018.41
2022-11-13T04:54:45.896Z,1018.42
2022-11-13T04:55:45.928Z,1018.44
2022-11-13T04:56:45.917Z,1018.40
2022-11-13T04:57:45.871Z,1018.36
2022-11-13T04:58:45.885Z,1018.39
2022-11-13T04:59:45.827Z,1018.41
2022-11-13T05:00:45.908Z,1018.38
2022-11-13T05:01:45.861Z,1018.33
2022-11-13T05:02:45.916Z,1018.36
2022-11-13T05:03:45.793Z,1018.38
2022-11-13T05:04:45.765Z,1018.43
2022-11-13T05:05:44.875Z,1018.35
2022-11-13T05:06:45.804Z,1018.37
2022-11-13T05:07:45.760Z,1018.34
2022-11-13T05:08:45.752Z,1018.39
2022-11-13T05:09:45.756Z,1018.37
2022-11-13T05:10:45.810Z,1018.39
2022-11-13T05:11:45.686Z,1018.41
2022-11-13T05:12:45.647Z,1018.48
2022-11-13T05:13:45.655Z,1018.41
2022-11-13T05:14:45.706Z,1018.39
2022-11-13T05:15:45.633Z,1018.36
2022-11-13T05:16:45.615Z,1018.36
2022-11-13T05:17:45.657Z,1018.40
2022-11-13T05:18:45.587Z,1018.43
2022-11-13T05:19:45.572Z,1018.42
2022-11-13T05:20:45.575Z,1018.37
2022-11-13T05:21:45.554Z,1018.39
2022-11-13T05:22:45.590Z,1018.37
2022-11-13T05:23:45.540Z,1018.31
2022-11-13T05:24:45.554Z,1018.34
2022-11-13T05:25:45.604Z,1018.32
2022-11-13T05:26:45.501Z,1018.35
2022-11-13T05:27:45.473Z,1018.32
2022-11-13T05:28:45.680Z,1018.29
2022-11-13T05:29:45.450Z,1018.29
2022-11-13T05:30:45.443Z,1018.24
2022-11-13T05:31:45.441Z,1018.24
2022-11-13T05:32:45.399Z,1018.19
2022-11-13T05:33:45.394Z,1018.18
2022-11-13T05:34:45.373Z,1018.19
2022-11-13T05:35:45.466Z,1018.17
2022-11-13T05:36:45.353Z,1018.14
2022-11-13T05:37:45.334Z,1018.14
2022-11-13T05:38:45.310Z,1018.11
2022-11-13T05:39:45.343Z,1018.13
2022-11-13T05:40:45.298Z,1018.14
2022-11-13T05:41:45.303Z,1018.14
2022-11-13T05:42:45.260Z,1018.12
2022-11-13T05:43:45.268Z,1018.10
2022-11-13T05:44:45.234Z,1018.13
2022-11-13T05:45:45.232Z,1018.13
2022-11-13T05:46:45.201Z,1018.14
2022-11-13T05:47:45.194Z,1018.10
2022-11-13T05:48:45.199Z,1018.08
2022-11-13T05:49:45.179Z,1018.02
2022-11-13T05:50:45.160Z,1018.00
2022-11-13T05:51:45.146Z,1018.03
2022-11-13T05:52:45.145Z,1018.01
2022-11-13T05:53:45.198Z,1018.04
2022-11-13T05:54:45.111Z,1017.99
2022-11-13T05:55:45.150Z,1017.98
2022-11-13T05:56:45.079Z,1017.98
2022-11-13T05:57:45.077Z,1017.97
2022-11-13T05:58:45.077Z,1017.98
2022-11-13T05:59:45.075Z,1017.93
2022-11-13T06:00:45.132Z,1017.96
2022-11-13T06:01:45.186Z,1017.94
2022-11-13T06:02:44.996Z,1017.95
2022-11-13T06:03:45.023Z,1017.93
2022-11-13T06:04:44.965Z,1017.91
2022-11-13T06:05:44.987Z,1017.96
2022-11-13T06:06:45.050Z,1017.97
2022-11-13T06:07:44.931Z,1017.92
2022-11-13T06:08:44.932Z,1017.94
2022-11-13T06:09:44.897Z,1017.92
2022-11-13T06:10:44.950Z,1017.91
2022-11-13T06:11:44.878Z,1017.91
2022-11-13T06:12:44.985Z,1017.88
2022-11-13T06:13:44.867Z,1017.84
2022-11-13T06:14:44.874Z,1017.84
2022-11-13T06:15:44.811Z,1017.81
2022-11-13T06:16:44.802Z,1017.84
2022-11-13T06:17:44.817Z,1017.84
2022-11-13T06:18:44.777Z,1017.86
2022-11-13T06:19:44.769Z,1017.90
2022-11-13T06:20:44.739Z,1017.88
2022-11-13T06:21:44.840Z,1017.87
2022-11-13T06:22:44.734Z,1017.86
2022-11-13T06:23:44.738Z,1017.83
2022-11-13T06:24:44.735Z,1017.87
2022-11-13T06:25:44.760Z,1017.81
2022-11-13T06:26:44.701Z,1017.79
2022-11-13T06:27:44.646Z,1017.78
2022-11-13T06:28:44.793Z,1017.77
2022-11-13T06:29:44.631Z,1017.76
2022-11-13T06:30:44.636Z,1017.73
2022-11-13T06:31:44.617Z,1017.71
2022-11-13T06:32:44.809Z,1017.73
2022-11-13T06:33:44.614Z,1017.73
2022-11-13T06:34:44.584Z,1017.73
2022-11-13T06:35:44.556Z,1017.74
2022-11-13T06:36:44.557Z,1017.70
2022-11-13T06:37:44.528Z,1017.71
2022-11-13T06:38:44.562Z,1017.77
2022-11-13T06:39:44.504Z,1017.78
2022-11-13T06:40:44.488Z,1017.69
2022-11-13T06:41:44.497Z,1017.72
2022-11-13T06:42:44.454Z,1017.70
2022-11-13T06:43:44.460Z,1017.72
2022-11-13T06:44:44.525Z,1017.75
2022-11-13T06:45:44.467Z,1017.70
2022-11-13T06:46:44.432Z,1017.70
2022-11-13T06:47:44.545Z,1017.64
2022-11-13T06:48:44.386Z,1017.66
2022-11-13T06:49:44.365Z,1017.67
2022-11-13T06:50:48.314Z,1017.69
2022-11-13T06:51:44.339Z,1017.68
2022-11-13T06:52:44.318Z,1017.64
2022-11-13T06:53:44.350Z,1017.65
2022-11-13T06:54:44.322Z,1017.65
2022-11-13T06:55:44.287Z,1017.65
2022-11-13T06:56:44.414Z,1017.64
2022-11-13T06:57:44.247Z,1017.63
2022-11-13T06:58:44.318Z,1017.68
2022-11-13T06:59:44.245Z,1017.68
2022-11-13T07:00:44.391Z,1017.67
2022-11-13T07:01:44.239Z,1017.62
2022-11-13T07:02:44.223Z,1017.59
2022-11-13T07:03:44.206Z,1017.61
2022-11-13T07:04:44.210Z,1017.64
2022-11-13T07:05:44.340Z,1017.62
2022-11-13T07:06:44.209Z,1017.60
2022-11-13T07:07:44.143Z,1017.53
2022-11-13T07:08:44.128Z,1017.53
2022-11-13T07:09:44.175Z,1017.54
2022-11-13T07:10:44.123Z,1017.57
2022-11-13T07:11:44.074Z,1017.55
2022-11-13T07:12:44.099Z,1017.54
2022-11-13T07:13:44.146Z,1017.56
2022-11-13T07:14:44.033Z,1017.54
2022-11-13T07:15:44.020Z,1017.57
2022-11-13T07:17:08.144Z,1017.57
2022-11-13T07:17:44.036Z,1017.58
2022-11-13T07:18:43.994Z,1017.59
2022-11-13T07:19:43.980Z,1017.58
2022-11-13T07:20:43.953Z,1017.57
2022-11-13T07:21:43.946Z,1017.56
2022-11-13T07:22:43.934Z,1017.54
2022-11-13T07:23:43.920Z,1017.59
2022-11-13T07:24:43.969Z,1017.54
2022-11-13T07:25:43.889Z,1017.54
2022-11-13T07:26:43.948Z,1017.46
2022-11-13T07:27:43.870Z,1017.48
2022-11-13T07:28:44.015Z,1017.52
2022-11-13T07:29:43.873Z,1017.54
2022-11-13T07:30:43.848Z,1017.47
2022-11-13T07:31:43.860Z,1017.46
2022-11-13T07:32:43.876Z,1017.47
2022-11-13T07:33:43.790Z,1017.46
2022-11-13T07:34:43.783Z,1017.46
2022-11-13T07:35:43.798Z,1017.51
2022-11-13T07:36:43.834Z,1017.47
2022-11-13T07:37:43.733Z,1017.46
2022-11-13T07:38:43.760Z,1017.50
2022-11-13T07:39:43.834Z,1017.47
2022-11-13T07:40:43.719Z,1017.44
2022-11-13T07:41:43.674Z,1017.41
2022-11-13T07:42:43.753Z,1017.42
2022-11-13T07:43:43.660Z,1017.44
2022-11-13T07:44:59.135Z,1017.37
2022-11-13T07:45:43.634Z,1017.40
2022-11-13T07:46:43.647Z,1017.40
2022-11-13T07:47:43.701Z,1017.38
2022-11-13T07:48:43.583Z,1017.41
2022-11-13T07:49:43.556Z,1017.39
2022-11-13T07:50:43.553Z,1017.37
2022-11-13T07:51:43.558Z,1017.36
2022-11-13T07:52:43.524Z,1017.41
2022-11-13T07:53:43.642Z,1017.45
2022-11-13T07:54:43.504Z,1017.43
2022-11-13T07:55:43.563Z,1017.44
2022-11-13T07:56:43.474Z,1017.39
2022-11-13T07:57:43.479Z,1017.40
2022-11-13T07:58:43.450Z,1017.40
2022-11-13T07:59:43.424Z,1017.37
2022-11-13T08:00:43.538Z,1017.31
2022-11-13T08:01:43.400Z,1017.33
2022-11-13T08:02:43.389Z,1017.38
2022-11-13T08:03:43.365Z,1017.31
2022-11-13T08:04:43.509Z,1017.33
2022-11-13T08:05:43.350Z,1017.35
2022-11-13T08:06:43.403Z,1017.32
2022-11-13T08:07:47.224Z,1017.30
2022-11-13T08:08:43.301Z,1017.29
2022-11-13T08:09:43.310Z,1017.23
2022-11-13T08:10:43.292Z,1017.25
2022-11-13T08:11:43.341Z,1017.24
2022-11-13T08:12:43.259Z,1017.27
2022-11-13T08:13:43.251Z,1017.20
2022-11-13T08:14:43.233Z,1017.21
2022-11-13T08:15:43.247Z,1017.23
2022-11-13T08:16:43.230Z,1017.24
2022-11-13T08:17:43.191Z,1017.24
2022-11-13T08:18:43.184Z,1017.23
2022-11-13T08:19:43.189Z,1017.16
2022-11-13T08:20:43.181Z,1017.22
2022-11-13T08:21:43.141Z,1017.19
2022-11-13T08:22:43.122Z,1017.21
2022-11-13T08:23:43.108Z,1017.21
2022-11-13T08:24:43.089Z,1017.23
2022-11-13T08:25:43.072Z,1017.25
2022-11-13T08:26:43.138Z,1017.24
2022-11-13T08:27:43.054Z,1017.20
2022-11-13T08:28:43.061Z,1017.22
2022-11-13T08:29:43.294Z,1017.13
2022-11-13T08:30:43.042Z,1017.09
2022-11-13T08:31:43.054Z,1017.09
2022-11-13T08:32:43.021Z,1017.09
2022-11-13T08:33:42.973Z,1017.11
2022-11-13T08:34:42.953Z,1017.10
2022-11-13T08:35:43.018Z,1017.12
2022-11-13T08:36:42.956Z,1017.05
2022-11-13T08:37:43.082Z,1017.08
2022-11-13T08:38:43.363Z,1017.08
2022-11-13T08:39:42.915Z,1017.08
2022-11-13T08:40:42.897Z,1017.05
2022-11-13T08:41:42.895Z,1017.02
2022-11-13T08:42:42.871Z,1017.03
2022-11-13T08:43:42.875Z,1016.99
2022-11-13T08:44:42.844Z,1016.96
2022-11-13T08:45:42.829Z,1016.97
2022-11-13T08:46:42.832Z,1016.94
2022-11-13T08:47:42.793Z,1016.93
2022-11-13T08:48:42.780Z,1016.90
2022-11-13T08:49:42.840Z,1016.95
2022-11-13T08:50:42.788Z,1016.86
2022-11-13T08:51:42.797Z,1016.94
2022-11-13T08:52:42.816Z,1016.88
2022-11-13T08:53:42.751Z,1016.91
2022-11-13T08:54:42.709Z,1016.88
2022-11-13T08:55:42.718Z,1016.95
2022-11-13T08:56:42.698Z,1016.94
2022-11-13T08:57:42.737Z,1016.88
2022-11-13T08:58:42.668Z,1016.84
2022-11-13T08:59:42.623Z,1016.90
2022-11-13T09:00:42.634Z,1016.87
2022-11-13T09:01:42.639Z,1016.87
2022-11-13T09:02:43.127Z,1016.87
2022-11-13T09:03:42.636Z,1016.86
2022-11-13T09:04:42.620Z,1016.87
2022-11-13T09:05:42.843Z,1016.89
2022-11-13T09:06:42.561Z,1016.87
2022-11-13T09:07:42.532Z,1016.88
2022-11-13T09:08:42.503Z,1016.88
2022-11-13T09:09:42.644Z,1016.84
2022-11-13T09:10:42.557Z,1016.83
2022-11-13T09:11:42.728Z,1016.82
2022-11-13T09:12:42.495Z,1016.81
2022-11-13T09:13:45.124Z,1016.80
2022-11-13T09:14:42.441Z,1016.80
2022-11-13T09:15:42.412Z,1016.76
2022-11-13T09:16:42.434Z,1016.74
2022-11-13T09:17:42.403Z,1016.70
2022-11-13T09:18:42.369Z,1016.68
2022-11-13T09:19:42.362Z,1016.67
2022-11-13T09:20:42.353Z,1016.67
2022-11-13T09:21:42.371Z,1016.63
2022-11-13T09:22:42.367Z,1016.70
2022-11-13T09:23:43.427Z,1016.67
2022-11-13T09:24:42.480Z,1016.63
2022-11-13T09:25:42.284Z,1016.64
2022-11-13T09:26:43.205Z,1016.64
2022-11-13T09:27:42.342Z,1016.65
2022-11-13T09:28:41.257Z,1016.65
2022-11-13T09:29:42.399Z,1016.65
2022-11-13T09:30:42.222Z,1016.64
2022-11-13T09:31:42.225Z,1016.65
2022-11-13T09:32:42.205Z,1016.72
2022-11-13T09:33:42.216Z,1016.68
2022-11-13T09:34:42.218Z,1016.67
2022-11-13T09:35:42.206Z,1016.64
2022-11-13T09:36:42.326Z,1016.64
2022-11-13T09:37:42.195Z,1016.62
2022-11-13T09:38:42.106Z,1016.56
2022-11-13T09:39:42.159Z,1016.61
2022-11-13T09:40:42.145Z,1016.59
2022-11-13T09:41:42.075Z,1016.58
2022-11-13T09:42:42.183Z,1016.60
2022-11-13T09:43:42.097Z,1016.64
2022-11-13T09:44:42.033Z,1016.57
2022-11-13T09:45:42.098Z,1016.59
2022-11-13T09:46:42.044Z,1016.54
2022-11-13T09:47:41.992Z,1016.51
2022-11-13T09:48:41.986Z,1016.46
2022-11-13T09:49:41.948Z,1016.45
2022-11-13T09:50:42.017Z,1016.44
2022-11-13T09:51:42.030Z,1016.45
2022-11-13T09:52:42.047Z,1016.44
2022-11-13T09:53:42.035Z,1016.40
2022-11-13T09:54:41.904Z,1016.41
2022-11-13T09:55:41.910Z,1016.42
2022-11-13T09:56:41.916Z,1016.38
2022-11-13T09:57:41.856Z,1016.37
2022-11-13T09:58:42.046Z,1016.35
2022-11-13T09:59:41.955Z,1016.35
2022-11-13T10:00:41.882Z,1016.31
2022-11-13T10:01:41.814Z,1016.33
2022-11-13T10:02:41.797Z,1016.32
2022-11-13T10:04:41.771Z,1016.33
2022-11-13T10:05:41.780Z,1016.34
2022-11-13T10:06:41.758Z,1016.30
2022-11-13T10:07:41.723Z,1016.30
2022-11-13T10:08:41.724Z,1016.26
2022-11-13T10:09:41.705Z,1016.27
2022-11-13T10:10:41.753Z,1016.26
2022-11-13T10:11:41.688Z,1016.27
2022-11-13T10:12:41.776Z,1016.18
2022-11-13T10:13:41.641Z,1016.13
2022-11-13T10:14:41.633Z,1016.13
2022-11-13T10:15:41.644Z,1016.13
2022-11-13T10:16:41.655Z,1016.16
2022-11-13T10:17:41.689Z,1016.13
2022-11-13T10:18:41.658Z,1016.11
2022-11-13T10:19:41.588Z,1016.08
2022-11-13T10:20:41.608Z,1016.07
2022-11-13T10:21:41.534Z,1016.06
2022-11-13T10:22:41.538Z,1016.09
2022-11-13T10:23:41.520Z,1016.04
2022-11-13T10:24:41.585Z,1016.07
2022-11-13T10:25:41.478Z,1015.99
2022-11-13T10:26:41.491Z,1016.06
2022-11-13T10:27:41.581Z,1015.92
2022-11-13T10:28:50.593Z,1015.93
2022-11-13T10:29:44.831Z,1015.91
2022-11-13T10:30:41.446Z,1015.93
2022-11-13T10:31:41.447Z,1015.90
2022-11-13T10:32:41.416Z,1015.87
2022-11-13T10:33:41.379Z,1015.85
2022-11-13T10:34:41.362Z,1015.86
2022-11-13T10:35:41.352Z,1015.85
2022-11-13T10:36:41.350Z,1015.84
2022-11-13T10:37:41.329Z,1015.86
2022-11-13T10:38:41.314Z,1015.84
2022-11-13T10:39:41.289Z,1015.78
2022-11-13T10:40:41.333Z,1015.82
2022-11-13T10:41:41.274Z,1015.78
2022-11-13T10:42:41.261Z,1015.78
2022-11-13T10:43:41.252Z,1015.76
2022-11-13T10:44:41.233Z,1015.70
2022-11-13T10:45:41.219Z,1015.71
2022-11-13T10:46:41.207Z,1015.72
2022-11-13T10:48:03.119Z,1015.72
2022-11-13T10:48:41.201Z,1015.67
2022-11-13T10:49:41.172Z,1015.66
2022-11-13T10:50:41.172Z,1015.64
2022-11-13T10:51:41.155Z,1015.62
2022-11-13T10:52:41.156Z,1015.64
2022-11-13T10:53:41.151Z,1015.55
2022-11-13T10:54:41.140Z,1015.55
2022-11-13T10:55:41.211Z,1015.54
2022-11-13T10:56:41.084Z,1015.52
2022-11-13T10:57:41.092Z,1015.49
2022-11-13T10:58:41.050Z,1015.50
2022-11-13T10:59:41.056Z,1015.45
2022-11-13T11:00:41.130Z,1015.41
2022-11-13T11:01:41.127Z,1015.44
2022-11-13T11:02:40.999Z,1015.38
2022-11-13T11:03:41.003Z,1015.38
2022-11-13T11:04:40.956Z,1015.35
2022-11-13T11:05:40.955Z,1015.36
2022-11-13T11:07:40.973Z,1015.38
2022-11-13T11:08:40.912Z,1015.36
2022-11-13T11:09:40.904Z,1015.39
2022-11-13T11:10:40.899Z,1015.30
2022-11-13T11:11:40.869Z,1015.28
2022-11-13T11:12:40.850Z,1015.24
2022-11-13T11:13:40.904Z,1015.23
2022-11-13T11:14:40.831Z,1015.24
2022-11-13T11:15:40.842Z,1015.21
2022-11-13T11:16:40.827Z,1015.16
2022-11-13T11:17:40.790Z,1015.17
2022-11-13T11:18:40.788Z,1015.10
2022-11-13T11:19:40.830Z,1015.12
2022-11-13T11:20:40.748Z,1015.14
2022-11-13T11:21:39.728Z,1015.13
2022-11-13T11:22:40.804Z,1015.06
2022-11-13T11:23:40.710Z,1015.08
2022-11-13T11:24:40.743Z,1015.03
2022-11-13T11:25:40.767Z,1015.04
2022-11-13T11:26:40.727Z,1015.05
2022-11-13T11:27:40.696Z,1015.08
2022-11-13T11:28:40.691Z,1015.02
2022-11-13T11:29:40.648Z,1015.04
2022-11-13T11:30:40.600Z,1015.02
2022-11-13T11:31:40.626Z,1014.96
2022-11-13T11:32:40.605Z,1015.01
2022-11-13T11:33:40.595Z,1014.92
2022-11-13T11:34:40.551Z,1014.94
2022-11-13T11:35:40.585Z,1014.90
2022-11-13T11:36:40.538Z,1014.92
2022-11-13T11:37:40.512Z,1014.88
2022-11-13T11:38:40.522Z,1014.88
2022-11-13T11:39:40.536Z,1014.85
2022-11-13T11:40:40.503Z,1014.82
2022-11-13T11:41:40.639Z,1014.78
2022-11-13T11:42:40.492Z,1014.82
2022-11-13T11:43:40.444Z,1014.77
2022-11-13T11:44:40.421Z,1014.77
2022-11-13T11:45:40.416Z,1014.77
2022-11-13T11:46:44.090Z,1014.77
2022-11-13T11:47:40.380Z,1014.76
2022-11-13T11:48:41.336Z,1014.74
2022-11-13T11:49:40.372Z,1014.69
2022-11-13T11:50:40.337Z,1014.68
2022-11-13T11:51:40.327Z,1014.69
2022-11-13T11:52:40.421Z,1014.65
2022-11-13T11:53:40.320Z,1014.70
2022-11-13T11:54:40.296Z,1014.66
2022-11-13T11:55:40.300Z,1014.62
2022-11-13T11:56:40.272Z,1014.58
2022-11-13T11:57:40.248Z,1014.62
2022-11-13T11:58:40.235Z,1014.58
2022-11-13T11:59:40.350Z,1014.58
2022-11-13T12:00:40.246Z,1014.55
2022-11-13T12:01:40.215Z,1014.48
2022-11-13T12:02:40.175Z,1014.48
2022-11-13T12:03:40.184Z,1014.49
2022-11-13T12:04:40.215Z,1014.46
2022-11-13T12:05:40.252Z,1014.45
2022-11-13T12:06:40.183Z,1014.46
2022-11-13T12:07:40.125Z,1014.42
2022-11-13T12:08:40.299Z,1014.45
2022-11-13T12:09:40.082Z,1014.44